Time;durP1;ratioP1;P1;durP2;ratioP2;P2;SDS_P1;SDS_P2;PMS_P1;PMS_P2;Temp;Humidity;BMP_temperature;BMP_pressure;BME280_temperature;BME280_humidity;BME280_pressure;Samples;Min_cycle;Max_cycle;Signal;HPM_P1;HPM_P2
2021/10/01 00:01:04;;;;;;;4.43;0.10;;;12.60;99.90;;;;;;4992683;28;20088;-77
2021/10/01 00:03:29;;;;;;;2.65;0.10;;;12.50;99.90;;;;;;4992734;28;20072;-76
2021/10/01 00:05:55;;;;;;;1.25;0.00;;;12.50;99.90;;;;;;4994009;28;20023;-76
2021/10/01 00:08:20;;;;;;;1.05;0.00;;;12.60;99.90;;;;;;4992889;28;20018;-76
2021/10/01 00:10:46;;;;;;;2.55;0.00;;;12.60;99.90;;;;;;4993844;28;20098;-76
2021/10/01 00:13:11;;;;;;;3.42;0.40;;;12.50;99.90;;;;;;4993693;28;20065;-76
2021/10/01 00:15:37;;;;;;;7.15;0.20;;;12.60;99.90;;;;;;4994064;28;20030;-76
2021/10/01 00:18:04;;;;;;;2.60;0.00;;;12.60;99.90;;;;;;4994084;28;20420;-77
2021/10/01 00:20:30;;;;;;;1.08;0.00;;;12.60;99.90;;;;;;4993805;28;20110;-77
2021/10/01 00:22:55;;;;;;;3.03;0.00;;;12.70;99.90;;;;;;4992550;28;20049;-77
2021/10/01 00:25:21;;;;;;;2.05;0.20;;;12.70;99.90;;;;;;4992920;28;20034;-77
2021/10/01 00:27:47;;;;;;;1.20;0.00;;;12.70;99.90;;;;;;4996390;28;20395;-77
2021/10/01 00:30:12;;;;;;;4.55;0.00;;;12.70;99.90;;;;;;4997766;28;20023;-77
2021/10/01 00:32:38;;;;;;;0.65;0.20;;;12.70;99.90;;;;;;4997761;28;20038;-77
2021/10/01 00:35:04;;;;;;;1.17;0.00;;;12.70;99.90;;;;;;4997895;28;20073;-78
2021/10/01 00:37:30;;;;;;;2.50;0.00;;;12.70;99.90;;;;;;4996301;28;20089;-77
2021/10/01 00:39:55;;;;;;;1.13;0.00;;;12.80;99.90;;;;;;4997760;28;20026;-77
2021/10/01 00:42:21;;;;;;;0.47;0.00;;;12.80;99.90;;;;;;4996323;28;20471;-77
2021/10/01 00:44:47;;;;;;;1.55;0.00;;;12.80;99.90;;;;;;4998652;28;20022;-75
2021/10/01 00:47:13;;;;;;;2.72;0.00;;;12.80;99.90;;;;;;5001230;28;20101;-75
2021/10/01 00:49:39;;;;;;;1.90;0.00;;;12.80;99.90;;;;;;4997539;28;20554;-74
2021/10/01 00:52:06;;;;;;;1.35;0.03;;;12.80;99.90;;;;;;4997220;28;20082;-74
2021/10/01 00:54:31;;;;;;;2.53;0.00;;;12.80;99.90;;;;;;4997916;28;20665;-75
2021/10/01 00:56:59;;;;;;;2.17;0.00;;;12.80;99.90;;;;;;4997870;28;20034;-74
2021/10/01 00:59:24;;;;;;;1.80;0.00;;;12.90;99.90;;;;;;4998227;28;20023;-74
2021/10/01 01:01:50;;;;;;;1.83;0.40;;;12.80;99.90;;;;;;4997521;28;20027;-74
2021/10/01 01:04:18;;;;;;;3.38;0.00;;;12.80;99.90;;;;;;4996843;28;20113;-77
2021/10/01 01:07:08;;;;;;;2.87;0.17;;;12.80;99.90;;;;;;4997059;28;20042;-77
2021/10/01 01:09:58;;;;;;;3.10;0.20;;;12.70;99.90;;;;;;4996964;28;20054;-76
2021/10/01 01:12:28;;;;;;;5.85;0.10;;;12.70;99.90;;;;;;4995625;28;20088;-77
2021/10/01 01:15:08;;;;;;;3.45;0.00;;;12.80;99.90;;;;;;4995697;28;20036;-76
2021/10/01 01:17:36;;;;;;;3.72;0.10;;;12.80;99.90;;;;;;4997059;28;20037;-76
2021/10/01 01:20:07;;;;;;;3.65;0.10;;;12.70;99.90;;;;;;4995434;28;20026;-76
2021/10/01 01:22:51;;;;;;;2.17;0.15;;;12.70;99.90;;;;;;4996561;28;20031;-77
2021/10/01 01:26:00;;;;;;;4.35;0.20;;;12.60;99.90;;;;;;4996900;28;20031;-75
2021/10/01 01:28:55;;;;;;;2.53;0.28;;;12.50;99.90;;;;;;4997305;28;20113;-75
2021/10/01 01:31:42;;;;;;;0.20;0.00;;;12.50;99.90;;;;;;4985169;28;20027;-75
2021/10/01 01:34:08;;;;;;;2.45;0.00;;;12.50;99.90;;;;;;4998684;28;20026;-75
2021/10/01 01:36:34;;;;;;;1.42;0.00;;;12.50;99.90;;;;;;4996156;28;20030;-75
2021/10/01 01:39:02;;;;;;;5.53;0.40;;;12.50;99.90;;;;;;4996685;28;20026;-75
2021/10/01 01:41:30;;;;;;;0.73;0.00;;;12.60;99.90;;;;;;4995441;28;20023;-74
2021/10/01 01:43:56;;;;;;;1.10;0.10;;;12.50;99.90;;;;;;4996372;28;20026;-75
2021/10/01 01:46:23;;;;;;;1.27;0.00;;;12.50;99.90;;;;;;4995238;28;20033;-74
2021/10/01 01:48:50;;;;;;;3.78;0.00;;;12.40;99.90;;;;;;4995737;28;20121;-74
2021/10/01 01:51:17;;;;;;;0.40;0.10;;;12.50;99.90;;;;;;4997146;28;20015;-74
2021/10/01 01:53:43;;;;;;;3.92;0.00;;;12.40;99.90;;;;;;4997080;28;20042;-75
2021/10/01 01:56:10;;;;;;;3.40;0.00;;;12.40;99.90;;;;;;4995408;28;20022;-75
2021/10/01 01:58:37;;;;;;;0.47;0.00;;;12.40;99.90;;;;;;4995989;28;20113;-75
2021/10/01 02:01:05;;;;;;;1.13;0.00;;;12.40;99.90;;;;;;4996189;28;20019;-74
2021/10/01 02:03:33;;;;;;;2.58;0.00;;;12.50;99.90;;;;;;4996800;28;20026;-76
2021/10/01 02:05:59;;;;;;;2.57;0.00;;;12.50;99.90;;;;;;4995361;28;20502;-76
2021/10/01 02:08:26;;;;;;;0.85;0.00;;;12.50;99.90;;;;;;4995383;28;20495;-75
2021/10/01 02:10:53;;;;;;;1.40;0.00;;;12.50;99.90;;;;;;4996553;28;20052;-75
2021/10/01 02:13:20;;;;;;;1.35;0.00;;;12.50;99.90;;;;;;4995263;28;20033;-75
2021/10/01 02:15:51;;;;;;;0.88;0.00;;;12.40;99.90;;;;;;4996213;28;20030;-76
2021/10/01 02:18:23;;;;;;;1.55;0.00;;;12.40;99.90;;;;;;4996118;28;20026;-74
2021/10/01 02:20:50;;;;;;;3.30;0.00;;;12.40;99.90;;;;;;4996179;28;20026;-75
2021/10/01 02:23:16;;;;;;;1.48;0.00;;;12.40;99.90;;;;;;4994742;28;20053;-75
2021/10/01 02:28:35;;;;;;;1.27;0.00;;;12.40;99.90;;;;;;4996492;28;20085;-75
2021/10/01 02:31:04;;;;;;;2.30;0.30;;;12.40;99.90;;;;;;4995770;28;20041;-74
2021/10/01 02:33:50;;;;;;;3.28;0.38;;;12.30;99.90;;;;;;4995378;28;20018;-75
2021/10/01 02:36:15;;;;;;;4.97;0.00;;;12.40;99.90;;;;;;4994133;28;20113;-74
2021/10/01 02:38:42;;;;;;;1.85;0.10;;;12.40;99.90;;;;;;4994045;28;20137;-74
2021/10/01 02:41:08;;;;;;;2.67;0.10;;;12.40;99.90;;;;;;4994050;28;20026;-74
2021/10/01 02:43:34;;;;;;;2.25;0.17;;;12.50;99.90;;;;;;4996367;28;20094;-74
2021/10/01 02:45:59;;;;;;;3.65;0.00;;;12.50;99.90;;;;;;4994803;28;20072;-75
2021/10/01 02:48:25;;;;;;;1.30;0.20;;;12.50;99.90;;;;;;4993985;28;20145;-75
2021/10/01 02:50:57;;;;;;;1.52;0.10;;;12.50;99.90;;;;;;4994427;28;20057;-74
2021/10/01 02:53:32;;;;;;;8.30;0.70;;;12.50;99.90;;;;;;4995230;28;20030;-75
2021/10/01 02:56:13;;;;;;;4.32;0.00;;;12.50;99.90;;;;;;4994904;28;20042;-75
2021/10/01 02:58:41;;;;;;;2.58;0.00;;;12.40;99.90;;;;;;4994905;28;20033;-76
2021/10/01 03:01:11;;;;;;;2.45;0.00;;;12.30;99.90;;;;;;4993718;28;20045;-75
2021/10/01 03:03:40;;;;;;;2.35;0.00;;;12.30;99.90;;;;;;4994675;28;20027;-76
2021/10/01 03:06:07;;;;;;;3.22;0.15;;;12.30;99.90;;;;;;4998620;28;20058;-78
2021/10/01 03:08:34;;;;;;;1.02;0.00;;;12.20;99.90;;;;;;4997421;28;20042;-77
2021/10/01 03:11:02;;;;;;;3.20;0.00;;;12.20;99.90;;;;;;4999016;28;20037;-77
2021/10/01 03:13:29;;;;;;;3.70;0.28;;;12.20;99.90;;;;;;4997357;28;20471;-77
2021/10/01 03:15:59;;;;;;;0.55;0.15;;;12.10;99.90;;;;;;4998657;28;20027;-76
2021/10/01 03:18:26;;;;;;;4.70;0.08;;;12.10;99.90;;;;;;4995655;28;20476;-77
2021/10/01 03:20:53;;;;;;;6.57;0.10;;;12.00;99.90;;;;;;4993466;28;20058;-76
2021/10/01 03:23:20;;;;;;;0.73;0.00;;;12.10;99.90;;;;;;4994873;28;20375;-77
2021/10/01 03:25:46;;;;;;;3.55;0.00;;;12.10;99.90;;;;;;4994413;28;20022;-77
2021/10/01 03:28:13;;;;;;;0.60;0.00;;;12.00;99.90;;;;;;4994411;28;20117;-77
2021/10/01 03:30:40;;;;;;;2.65;0.00;;;12.00;99.90;;;;;;4993190;28;20022;-77
2021/10/01 03:33:06;;;;;;;3.25;0.15;;;12.10;99.90;;;;;;4993139;28;20095;-77
2021/10/01 03:35:32;;;;;;;3.92;1.15;;;12.10;99.90;;;;;;4993000;28;20120;-77
2021/10/01 03:37:59;;;;;;;1.83;0.00;;;12.10;99.90;;;;;;4994040;28;20034;-77
2021/10/01 03:40:30;;;;;;;6.32;0.63;;;12.00;99.90;;;;;;4993081;28;20030;-78
2021/10/01 03:42:56;;;;;;;1.00;0.00;;;12.00;99.90;;;;;;4994457;28;20535;-77
2021/10/01 03:45:21;;;;;;;1.88;0.00;;;12.00;99.90;;;;;;4992828;28;20064;-79
2021/10/01 03:47:47;;;;;;;1.55;0.00;;;12.00;99.90;;;;;;4993680;28;20117;-77
2021/10/01 03:50:12;;;;;;;1.75;0.00;;;12.00;99.90;;;;;;4994192;28;20030;-77
2021/10/01 03:52:39;;;;;;;0.47;0.00;;;12.00;99.90;;;;;;4994206;28;20037;-77
2021/10/01 03:55:06;;;;;;;5.43;0.10;;;12.00;99.90;;;;;;4994438;28;20494;-77
2021/10/01 03:57:32;;;;;;;1.35;0.30;;;12.00;99.90;;;;;;4993998;28;20027;-77
2021/10/01 03:59:58;;;;;;;4.93;0.15;;;12.00;99.90;;;;;;4993148;28;20480;-77
2021/10/01 04:02:23;;;;;;;1.23;0.38;;;11.90;99.90;;;;;;4993993;28;20025;-75
2021/10/01 04:04:50;;;;;;;0.55;0.00;;;11.90;99.90;;;;;;4992651;28;20030;-75
2021/10/01 04:07:16;;;;;;;1.25;0.00;;;11.90;99.90;;;;;;4994246;28;20530;-75
2021/10/01 04:09:41;;;;;;;3.55;0.00;;;11.90;99.90;;;;;;4992666;28;20042;-75
2021/10/01 04:12:08;;;;;;;0.52;0.05;;;11.80;99.90;;;;;;4993790;28;20022;-75
2021/10/01 04:14:35;;;;;;;0.55;0.00;;;11.90;99.90;;;;;;4992930;28;20026;-75
2021/10/01 04:17:01;;;;;;;5.75;0.00;;;11.90;99.90;;;;;;4992407;28;20076;-75
2021/10/01 04:19:26;;;;;;;4.68;0.55;;;11.90;99.90;;;;;;4993788;28;20034;-75
2021/10/01 04:21:52;;;;;;;1.65;0.00;;;11.90;99.90;;;;;;4994077;28;20027;-77
2021/10/01 04:24:17;;;;;;;0.65;0.00;;;11.90;99.90;;;;;;4994349;28;20383;-78
2021/10/01 04:26:43;;;;;;;2.97;0.00;;;11.90;99.90;;;;;;4992356;28;20022;-78
2021/10/01 04:29:09;;;;;;;2.00;0.00;;;12.00;99.90;;;;;;4993723;28;20058;-78
2021/10/01 04:31:36;;;;;;;1.63;0.20;;;12.00;99.90;;;;;;4992298;28;20030;-77
2021/10/01 04:34:03;;;;;;;3.75;0.00;;;12.00;99.90;;;;;;4992426;28;20045;-77
2021/10/01 04:36:31;;;;;;;3.88;0.20;;;12.10;99.90;;;;;;4993722;28;20022;-77
2021/10/01 04:38:56;;;;;;;3.23;0.10;;;12.00;99.90;;;;;;4992150;28;20022;-77
2021/10/01 04:41:22;;;;;;;16.35;1.35;;;12.00;99.90;;;;;;4993400;28;20543;-77
2021/10/01 04:43:48;;;;;;;0.50;0.00;;;12.10;99.90;;;;;;4992467;28;20426;-77
2021/10/01 04:46:15;;;;;;;2.97;0.40;;;12.10;99.90;;;;;;4993709;28;20018;-77
2021/10/01 04:48:40;;;;;;;4.78;0.00;;;12.10;99.90;;;;;;4992306;28;20030;-77
2021/10/01 04:51:06;;;;;;;2.20;0.22;;;12.10;99.90;;;;;;4992114;28;20081;-77
2021/10/01 04:53:32;;;;;;;5.97;0.22;;;12.20;99.90;;;;;;4993499;28;20026;-77
2021/10/01 04:55:57;;;;;;;2.10;0.00;;;12.20;99.90;;;;;;4992262;28;20080;-77
2021/10/01 04:58:23;;;;;;;0.30;0.00;;;12.10;99.90;;;;;;4993819;28;20058;-78
2021/10/01 05:00:48;;;;;;;2.13;0.00;;;12.10;99.90;;;;;;4993441;28;20050;-78
2021/10/01 05:03:14;;;;;;;3.45;0.52;;;12.20;99.90;;;;;;4993579;28;20438;-78
2021/10/01 05:05:40;;;;;;;1.05;0.00;;;12.20;99.90;;;;;;4993674;28;20029;-75
2021/10/01 05:08:06;;;;;;;1.23;0.03;;;12.20;99.90;;;;;;4993336;28;20030;-75
2021/10/01 05:10:31;;;;;;;1.60;0.28;;;12.20;99.90;;;;;;4993356;28;20076;-76
2021/10/01 05:12:57;;;;;;;2.03;0.43;;;12.20;99.90;;;;;;4996382;28;20026;-75
2021/10/01 05:15:23;;;;;;;1.55;0.00;;;12.20;99.90;;;;;;4996922;28;20041;-75
2021/10/01 05:17:51;;;;;;;0.22;0.10;;;12.20;99.90;;;;;;4997361;28;20069;-75
2021/10/01 05:20:18;;;;;;;5.05;0.20;;;12.20;99.90;;;;;;4995560;28;20106;-75
2021/10/01 05:22:43;;;;;;;1.13;0.00;;;12.10;99.90;;;;;;4996808;28;20023;-75
2021/10/01 05:25:09;;;;;;;0.00;0.00;;;12.10;99.90;;;;;;4997335;28;20088;-76
2021/10/01 05:27:36;;;;;;;2.15;0.00;;;12.10;99.90;;;;;;4996651;28;20058;-75
2021/10/01 05:30:05;;;;;;;0.55;0.00;;;12.00;99.90;;;;;;4995588;28;20534;-74
2021/10/01 05:32:30;;;;;;;2.15;0.20;;;12.00;99.90;;;;;;4996683;28;20029;-75
2021/10/01 05:34:56;;;;;;;1.65;0.00;;;11.90;99.90;;;;;;4997928;28;20026;-75
2021/10/01 05:37:22;;;;;;;0.17;0.03;;;12.00;99.90;;;;;;4997038;28;20034;-76
2021/10/01 05:39:47;;;;;;;1.55;0.00;;;12.00;99.90;;;;;;4995040;28;20487;-76
2021/10/01 05:42:13;;;;;;;0.45;0.00;;;11.90;99.90;;;;;;4995285;28;20117;-76
2021/10/01 05:44:38;;;;;;;11.35;0.30;;;12.00;99.90;;;;;;4996861;28;20015;-76
2021/10/01 05:47:06;;;;;;;1.30;0.00;;;11.90;99.90;;;;;;4996484;28;20022;-77
2021/10/01 05:49:38;;;;;;;1.27;0.00;;;11.90;99.90;;;;;;4996036;28;20058;-75
2021/10/01 05:54:47;;;;;;;5.65;0.00;;;11.90;99.90;;;;;;4976970;28;20041;-74
2021/10/01 05:57:13;;;;;;;1.40;0.00;;;11.90;99.90;;;;;;4994632;28;20034;-75
2021/10/01 05:59:40;;;;;;;4.40;0.00;;;11.90;99.90;;;;;;4996150;28;20022;-77
2021/10/01 06:02:15;;;;;;;4.72;0.00;;;12.00;99.90;;;;;;4995105;28;20033;-75
2021/10/01 06:04:42;;;;;;;1.10;0.13;;;12.00;99.90;;;;;;4996695;28;20058;-78
2021/10/01 06:07:08;;;;;;;6.97;0.35;;;12.00;99.90;;;;;;4994438;28;20109;-73
2021/10/01 06:09:34;;;;;;;3.10;0.00;;;12.00;99.90;;;;;;4995575;28;20054;-72
2021/10/01 06:12:00;;;;;;;4.88;0.20;;;12.00;99.90;;;;;;4995681;28;20042;-72
2021/10/01 06:14:26;;;;;;;1.83;0.10;;;12.10;99.90;;;;;;4995720;28;20068;-72
2021/10/01 06:16:53;;;;;;;3.25;0.00;;;12.10;99.90;;;;;;4995670;28;20041;-73
2021/10/01 06:19:20;;;;;;;3.25;0.00;;;12.20;99.90;;;;;;4994115;28;20022;-73
2021/10/01 06:21:46;;;;;;;1.70;0.00;;;12.10;99.90;;;;;;4995706;28;20022;-73
2021/10/01 06:24:15;;;;;;;1.20;0.00;;;12.10;99.90;;;;;;4994081;28;20053;-73
2021/10/01 06:26:40;;;;;;;2.55;0.00;;;12.20;99.90;;;;;;4996161;28;20027;-73
2021/10/01 06:29:06;;;;;;;3.05;0.00;;;12.10;99.90;;;;;;4997096;28;20402;-73
2021/10/01 06:31:32;;;;;;;5.57;0.35;;;12.10;99.90;;;;;;4999263;28;20031;-73
2021/10/01 06:33:58;;;;;;;2.08;0.00;;;12.10;99.90;;;;;;4997773;28;20033;-73
2021/10/01 06:36:24;;;;;;;3.17;0.00;;;12.20;99.90;;;;;;4999209;28;20022;-74
2021/10/01 06:38:50;;;;;;;2.38;0.00;;;12.20;99.90;;;;;;4999220;28;20026;-74
2021/10/01 06:41:16;;;;;;;6.50;0.45;;;12.30;99.90;;;;;;4995469;28;20026;-73
2021/10/01 06:43:44;;;;;;;3.58;0.10;;;12.30;99.90;;;;;;4996053;28;20524;-73
2021/10/01 06:46:22;;;;;;;2.53;0.25;;;12.30;99.90;;;;;;4995772;28;20030;-72
2021/10/01 06:49:11;;;;;;;1.17;0.22;;;12.40;99.90;;;;;;4995343;28;20038;-72
2021/10/01 08:21:30;;;;;;;1.95;0.00;;;14.20;99.90;;;;;;4994261;28;20451;-74
2021/10/01 08:23:58;;;;;;;2.00;0.00;;;14.20;99.90;;;;;;4992536;28;20049;-74
2021/10/01 08:26:25;;;;;;;3.25;0.15;;;14.20;99.90;;;;;;4993791;28;20019;-72
2021/10/01 08:28:50;;;;;;;3.20;0.00;;;14.10;99.90;;;;;;4992495;28;20068;-74
2021/10/01 08:31:19;;;;;;;1.73;0.00;;;14.10;99.90;;;;;;4993741;28;20424;-74
2021/10/01 08:33:45;;;;;;;5.40;0.00;;;14.10;99.90;;;;;;4993852;28;20088;-74
2021/10/01 08:36:11;;;;;;;1.85;0.10;;;14.20;99.90;;;;;;4992801;28;20476;-74
2021/10/01 08:38:37;;;;;;;2.53;0.10;;;14.20;99.90;;;;;;4993640;28;20467;-74
2021/10/01 08:41:05;;;;;;;8.30;1.30;;;14.30;99.90;;;;;;4993593;28;20034;-74
2021/10/01 08:43:32;;;;;;;1.30;0.10;;;14.30;99.90;;;;;;4993699;28;20026;-74
2021/10/01 08:45:59;;;;;;;2.42;0.00;;;14.30;99.90;;;;;;4993350;28;20026;-74
2021/10/01 08:48:26;;;;;;;0.93;0.00;;;14.40;99.90;;;;;;4997314;28;20034;-74
2021/10/01 08:50:51;;;;;;;2.75;0.20;;;14.30;99.90;;;;;;4997505;28;20125;-74
2021/10/01 08:53:17;;;;;;;3.58;0.00;;;14.40;99.90;;;;;;4997921;28;20143;-74
2021/10/01 08:55:46;;;;;;;2.15;0.30;;;14.50;99.90;;;;;;4997301;28;20019;-74
2021/10/01 08:58:13;;;;;;;0.25;0.15;;;14.70;99.90;;;;;;4997468;28;20069;-74
2021/10/01 09:00:39;;;;;;;2.65;0.05;;;14.70;99.90;;;;;;4997726;28;20030;-74
2021/10/01 09:03:05;;;;;;;0.63;0.00;;;14.80;99.90;;;;;;4997362;28;20065;-74
2021/10/01 09:05:30;;;;;;;3.38;0.00;;;15.00;99.90;;;;;;4995552;28;20483;-74
2021/10/01 09:08:12;;;;;;;2.95;0.70;;;15.10;99.90;;;;;;4995293;28;20030;-74
2021/10/01 09:10:37;;;;;;;3.40;0.40;;;15.20;99.90;;;;;;4997094;28;20480;-74
2021/10/01 09:13:03;;;;;;;0.32;0.00;;;15.20;99.90;;;;;;4996958;28;20105;-74
2021/10/01 09:15:40;;;;;;;1.95;0.55;;;15.20;99.90;;;;;;4996956;28;20488;-74
2021/10/01 09:18:05;;;;;;;2.72;0.05;;;15.20;99.90;;;;;;4996541;28;20514;-74
2021/10/01 09:20:31;;;;;;;8.32;0.05;;;15.20;99.90;;;;;;4995187;28;20050;-74
2021/10/01 09:23:17;;;;;;;0.85;0.00;;;15.20;99.90;;;;;;4995283;28;20538;-74
2021/10/01 09:25:43;;;;;;;1.27;0.00;;;15.20;99.90;;;;;;4997114;28;20043;-74
2021/10/01 09:28:12;;;;;;;1.17;0.00;;;15.30;99.90;;;;;;4995422;28;20015;-74
2021/10/01 09:30:50;;;;;;;1.38;0.00;;;15.40;99.90;;;;;;4996618;28;20101;-74
2021/10/01 09:33:19;;;;;;;1.60;0.00;;;15.40;99.90;;;;;;4996199;28;20480;-74
2021/10/01 09:35:44;;;;;;;;;;;15.30;99.90;;;;;;4997078;28;20033;-74
2021/10/01 09:38:16;;;;;;;2.67;0.05;;;15.30;99.90;;;;;;4995374;28;20422;-74
2021/10/01 09:40:45;;;;;;;1.70;0.00;;;15.30;99.90;;;;;;4995251;28;20109;-72
2021/10/01 09:43:30;;;;;;;1.05;0.00;;;15.30;99.90;;;;;;4996412;28;20101;-72
2021/10/01 09:46:05;;;;;;;1.70;0.10;;;15.30;99.90;;;;;;4996448;28;20022;-72
2021/10/01 09:48:34;;;;;;;2.83;0.32;;;15.40;99.90;;;;;;4996271;28;20046;-72
2021/10/01 09:51:11;;;;;;;2.05;0.00;;;15.40;99.90;;;;;;4996314;28;20383;-72
2021/10/01 09:53:48;;;;;;;2.13;0.00;;;15.40;99.90;;;;;;4994990;28;20026;-72
2021/10/01 09:56:22;;;;;;;2.25;0.00;;;15.40;99.90;;;;;;4996283;28;20026;-72
2021/10/01 09:59:08;;;;;;;0.52;0.00;;;15.30;99.90;;;;;;4994995;28;20077;-73
2021/10/01 10:01:35;;;;;;;1.90;0.00;;;15.30;99.90;;;;;;4996053;28;20033;-74
2021/10/01 10:04:15;;;;;;;2.05;0.00;;;15.20;99.90;;;;;;4994626;28;20014;-74
2021/10/01 10:06:46;;;;;;;0.85;0.00;;;15.30;99.90;;;;;;4995998;28;20081;-74
2021/10/01 10:09:12;;;;;;;1.85;0.00;;;15.20;99.90;;;;;;4996002;28;20464;-74
2021/10/01 10:11:42;;;;;;;2.00;0.00;;;15.20;99.90;;;;;;4995976;28;20057;-72
2021/10/01 10:14:12;;;;;;;2.53;0.00;;;15.10;99.90;;;;;;4994461;28;20061;-72
2021/10/01 10:16:39;;;;;;;1.50;0.00;;;15.00;99.90;;;;;;4996078;28;20030;-72
2021/10/01 10:19:08;;;;;;;1.30;0.00;;;14.90;99.90;;;;;;4995851;28;20022;-73
2021/10/01 10:21:35;;;;;;;0.32;0.00;;;14.80;99.90;;;;;;4997341;28;20468;-73
2021/10/01 10:24:01;;;;;;;2.40;0.40;;;14.80;99.90;;;;;;5009903;22;20539;31
2021/10/01 10:26:28;;;;;;;3.17;0.00;;;14.80;99.90;;;;;;5012944;28;20119;-75
2021/10/01 10:28:57;;;;;;;2.00;0.00;;;14.80;99.90;;;;;;5015199;28;20121;-74
2021/10/01 10:31:27;;;;;;;4.43;0.00;;;14.70;99.90;;;;;;5013875;28;20033;-74
2021/10/01 10:33:56;;;;;;;4.47;0.95;;;14.60;99.90;;;;;;5014802;28;20029;-74
2021/10/01 10:36:36;;;;;;;3.65;0.13;;;14.50;99.90;;;;;;5013726;28;20029;-74
2021/10/01 10:39:11;;;;;;;1.90;0.00;;;14.40;99.90;;;;;;5013646;28;20026;-74
2021/10/01 10:41:45;;;;;;;3.95;0.85;;;14.30;99.90;;;;;;5013760;28;20026;-72
2021/10/01 10:44:13;;;;;;;5.28;0.52;;;14.20;99.90;;;;;;5015007;28;20022;-72
2021/10/01 10:46:44;;;;;;;5.13;0.10;;;14.20;99.90;;;;;;5014813;28;20010;-72
2021/10/01 10:49:21;;;;;;;4.00;0.00;;;14.10;99.90;;;;;;5013695;28;20029;-72
2021/10/01 10:52:03;;;;;;;2.97;0.17;;;14.10;99.90;;;;;;5014736;28;20029;-72
2021/10/01 10:54:31;;;;;;;2.03;0.10;;;14.10;99.90;;;;;;5013106;28;20030;-72
2021/10/01 10:57:15;;;;;;;1.40;0.00;;;14.10;99.90;;;;;;5014691;28;20538;-72
2021/10/01 10:59:45;;;;;;;2.70;0.00;;;14.20;99.90;;;;;;5014505;28;20033;-72
2021/10/01 11:02:25;;;;;;;2.45;0.00;;;14.40;99.90;;;;;;5013397;28;20048;-73
2021/10/01 11:04:51;;;;;;;1.60;0.00;;;14.40;99.90;;;;;;5014278;28;20100;-74
2021/10/01 11:07:44;;;;;;;4.32;0.10;;;14.50;99.90;;;;;;5014169;28;20498;-74
2021/10/01 11:10:39;;;;;;;1.70;0.10;;;14.40;99.90;;;;;;5014213;28;20062;-74
2021/10/01 11:13:22;;;;;;;0.98;0.00;;;14.40;99.90;;;;;;5014432;28;20479;-74
2021/10/01 11:16:09;;;;;;;2.10;0.00;;;14.40;99.90;;;;;;5014009;28;20099;-74
2021/10/01 11:18:56;;;;;;;2.85;0.20;;;14.40;99.90;;;;;;5013028;28;20495;-74
2021/10/01 11:21:27;;;;;;;5.57;0.40;;;14.50;99.90;;;;;;5014712;28;20594;-74
2021/10/01 11:23:57;;;;;;;11.40;0.85;;;14.60;99.90;;;;;;5012676;28;20399;-74
2021/10/01 11:26:50;;;;;;;3.30;0.00;;;14.80;99.90;;;;;;5014001;28;20029;-74
2021/10/01 11:29:37;;;;;;;2.78;0.10;;;14.90;99.90;;;;;;5012406;28;20101;-74
2021/10/01 11:32:02;;;;;;;3.20;0.10;;;15.10;99.90;;;;;;5012924;28;20026;-74
2021/10/01 11:34:38;;;;;;;2.35;0.00;;;15.20;99.90;;;;;;5013739;28;20116;-74
2021/10/01 11:37:18;;;;;;;3.83;0.55;;;15.20;99.90;;;;;;5014323;28;20018;-74
2021/10/01 11:39:44;;;;;;;2.05;0.32;;;15.20;99.90;;;;;;5013842;28;20424;-74
2021/10/01 11:42:18;;;;;;;3.45;0.32;;;15.20;99.90;;;;;;5014481;28;20017;-74
2021/10/01 11:44:44;;;;;;;2.03;0.00;;;15.20;99.90;;;;;;5013600;28;20489;-74
2021/10/01 11:47:09;;;;;;;0.85;0.35;;;15.20;99.90;;;;;;5013834;28;20097;-73
2021/10/01 11:49:35;;;;;;;0.85;0.00;;;15.20;99.90;;;;;;5013619;28;20076;-72
2021/10/01 11:52:07;;;;;;;3.42;0.35;;;15.30;99.90;;;;;;5013998;28;20490;-72
2021/10/01 11:54:33;;;;;;;2.10;0.00;;;15.30;99.90;;;;;;5012073;28;20475;-72
2021/10/01 11:57:01;;;;;;;1.98;0.10;;;15.30;99.90;;;;;;5012438;28;20018;-72
2021/10/01 11:59:57;;;;;;;4.43;0.00;;;15.30;99.90;;;;;;5013585;28;20053;-72
2021/10/01 12:02:27;;;;;;;4.40;0.00;;;15.40;99.90;;;;;;5013610;28;20010;-72
2021/10/01 12:04:53;;;;;;;3.00;0.00;;;15.40;99.90;;;;;;5013736;28;20097;-72
2021/10/01 12:07:18;;;;;;;3.13;0.10;;;15.50;99.90;;;;;;5014092;28;20060;-72
2021/10/01 12:10:01;;;;;;;2.05;0.00;;;15.50;99.90;;;;;;5012810;28;20364;-72
2021/10/01 12:12:26;;;;;;;1.30;0.00;;;15.50;99.90;;;;;;5011654;28;20060;-72
2021/10/01 12:14:52;;;;;;;3.20;0.15;;;15.50;99.90;;;;;;5013294;28;20066;-72
2021/10/01 12:17:17;;;;;;;0.10;0.00;;;15.40;99.90;;;;;;5012110;28;20088;-72
2021/10/01 12:19:43;;;;;;;1.45;0.00;;;15.40;99.90;;;;;;5012076;28;20030;-72
2021/10/01 12:22:16;;;;;;;1.15;0.00;;;15.40;99.90;;;;;;5015499;28;20375;-74
2021/10/01 12:24:54;;;;;;;3.10;0.22;;;15.40;99.90;;;;;;5017355;28;20034;-73
2021/10/01 12:27:42;;;;;;;0.15;0.00;;;15.40;99.90;;;;;;5017701;28;20026;-72
2021/10/01 12:30:09;;;;;;;2.20;0.00;;;15.50;99.90;;;;;;5016200;28;20072;-74
2021/10/01 12:32:35;;;;;;;2.78;0.10;;;15.50;99.90;;;;;;5017083;28;20037;-74
2021/10/01 12:35:01;;;;;;;3.50;0.10;;;15.50;99.90;;;;;;5017280;28;20018;-74
2021/10/01 12:37:30;;;;;;;4.07;0.00;;;15.60;99.90;;;;;;5017141;28;20033;-74
2021/10/01 12:39:59;;;;;;;1.05;0.08;;;15.60;99.90;;;;;;5017119;28;20029;-74
2021/10/01 12:42:28;;;;;;;1.00;0.20;;;15.60;99.90;;;;;;5017219;28;20022;-74
2021/10/01 12:45:05;;;;;;;1.95;0.00;;;15.60;99.90;;;;;;5017825;28;20062;-74
2021/10/01 12:47:36;;;;;;;1.33;0.05;;;15.50;99.90;;;;;;5015695;28;20566;-74
2021/10/01 12:50:07;;;;;;;4.85;0.00;;;15.50;99.90;;;;;;5015878;28;20029;-74
2021/10/01 12:52:33;;;;;;;3.90;0.10;;;15.50;99.90;;;;;;5017014;28;20018;-74
2021/10/01 12:55:05;;;;;;;1.08;0.00;;;15.50;99.90;;;;;;5015517;28;20033;-73
2021/10/01 12:57:51;;;;;;;1.55;0.10;;;15.50;99.90;;;;;;5017192;28;20399;-73
2021/10/01 13:00:22;;;;;;;1.13;0.05;;;15.50;99.90;;;;;;5019964;28;20030;-74
2021/10/01 13:02:51;;;;;;;5.85;0.00;;;15.50;99.90;;;;;;5020385;28;20018;-75
2021/10/01 13:05:19;;;;;;;3.08;0.08;;;15.60;99.90;;;;;;5020573;28;20022;-76
2021/10/01 13:07:58;;;;;;;1.00;0.00;;;15.60;99.90;;;;;;5020560;28;20041;-74
2021/10/01 13:10:31;;;;;;;1.40;0.00;;;15.70;99.90;;;;;;5020565;28;20034;-75
2021/10/01 13:13:02;;;;;;;1.65;0.35;;;15.80;99.90;;;;;;5019823;28;20022;-75
2021/10/01 13:15:40;;;;;;;0.88;0.00;;;15.80;99.90;;;;;;5020197;28;20041;-75
2021/10/01 13:18:20;;;;;;;4.65;0.00;;;15.90;99.90;;;;;;5018927;28;20387;-75
2021/10/01 13:20:50;;;;;;;5.18;0.25;;;15.90;99.90;;;;;;5019001;28;20037;-74
2021/10/01 13:23:36;;;;;;;1.45;0.43;;;15.90;99.90;;;;;;5019248;28;20035;-74
2021/10/01 13:26:24;;;;;;;1.63;0.08;;;15.90;99.90;;;;;;5020316;28;20116;-75
2021/10/01 13:29:12;;;;;;;1.55;0.03;;;15.80;99.90;;;;;;5019892;28;20109;-74
2021/10/01 13:31:46;;;;;;;3.33;0.10;;;15.80;99.90;;;;;;5020786;28;20030;-74
2021/10/01 13:34:14;;;;;;;2.17;0.00;;;15.70;99.90;;;;;;5019800;28;20813;-75
2021/10/01 13:36:40;;;;;;;1.25;0.00;;;15.70;99.90;;;;;;5019869;28;20061;-74
2021/10/01 13:39:06;;;;;;;0.73;0.00;;;15.70;99.90;;;;;;5018915;28;20124;-75
2021/10/01 13:41:33;;;;;;;3.17;0.00;;;15.50;99.90;;;;;;5019695;28;20025;-75
2021/10/01 13:43:59;;;;;;;2.88;0.00;;;15.50;99.90;;;;;;5018475;28;20018;-75
2021/10/01 13:46:24;;;;;;;2.47;0.00;;;15.30;99.90;;;;;;5018378;28;20390;-74
2021/10/01 13:48:52;;;;;;;2.28;0.10;;;15.40;99.90;;;;;;5020845;28;20029;-76
2021/10/01 13:51:18;;;;;;;0.55;0.00;;;15.30;99.90;;;;;;5020340;28;20471;-75
2021/10/01 13:53:46;;;;;;;2.38;0.75;;;15.30;99.90;;;;;;5019258;28;20108;-75
2021/10/01 13:56:11;;;;;;;3.22;0.00;;;15.20;99.90;;;;;;5018822;28;20112;-75
2021/10/01 13:58:37;;;;;;;3.20;0.00;;;15.30;99.90;;;;;;5017989;28;20056;-75
2021/10/01 14:01:04;;;;;;;2.20;0.08;;;15.30;99.90;;;;;;5018221;28;20121;-75
2021/10/01 14:03:29;;;;;;;2.60;0.00;;;15.30;99.90;;;;;;5017595;28;20022;-74
2021/10/01 14:05:56;;;;;;;2.00;0.00;;;15.20;99.90;;;;;;5019415;28;20036;-75
2021/10/01 14:08:22;;;;;;;1.90;0.00;;;15.20;99.90;;;;;;5019451;28;20076;-74
2021/10/01 14:10:49;;;;;;;2.20;0.20;;;15.20;99.90;;;;;;5019506;28;20399;-75
2021/10/01 14:13:15;;;;;;;3.50;0.00;;;15.30;99.90;;;;;;5019204;28;20022;-75
2021/10/01 14:15:44;;;;;;;5.43;0.00;;;15.40;99.90;;;;;;5019252;28;20034;-74
2021/10/01 14:18:11;;;;;;;1.65;0.03;;;15.40;99.90;;;;;;5018432;28;20026;-73
2021/10/01 14:20:37;;;;;;;1.83;0.22;;;15.50;99.90;;;;;;4999079;28;20066;-75
2021/10/01 14:23:03;;;;;;;2.33;0.10;;;15.60;99.90;;;;;;4999335;28;20073;-75
2021/10/01 14:25:29;;;;;;;1.48;0.25;;;15.60;99.90;;;;;;4998503;28;20018;-75
2021/10/01 14:27:59;;;;;;;2.30;0.32;;;15.70;99.90;;;;;;5001559;28;20071;-75
2021/10/01 14:30:28;;;;;;;7.45;0.35;;;15.70;99.90;;;;;;5018335;28;20026;-75
2021/10/01 14:32:57;;;;;;;2.83;0.00;;;15.80;99.90;;;;;;5018248;28;20053;-75
2021/10/01 14:35:24;;;;;;;5.00;0.00;;;15.80;99.90;;;;;;5016557;28;20033;-74